sensor_id;sensor_type;location;lat;lon;timestamp;pressure;altitude;pressure_sealevel;temperature;humidity
70521;BME280;58442;52.716;23.560;2023-10-31T00:01:25;100581.55;;;10.32;78.66
70521;BME280;58442;52.716;23.560;2023-10-31T00:03:26;100583.84;;;10.30;78.65
70521;BME280;58442;52.716;23.560;2023-10-31T00:05:28;100581.44;;;10.29;78.66
70521;BME280;58442;52.716;23.560;2023-10-31T00:07:29;100575.93;;;10.25;78.64
70521;BME280;58442;52.716;23.560;2023-10-31T00:09:40;100568.93;;;10.24;78.74
70521;BME280;58442;52.716;23.560;2023-10-31T00:11:42;100560.78;;;10.24;78.75
70521;BME280;58442;52.716;23.560;2023-10-31T00:13:45;100561.56;;;10.25;78.71
70521;BME280;58442;52.716;23.560;2023-10-31T00:15:46;100556.48;;;10.23;78.68
70521;BME280;58442;52.716;23.560;2023-10-31T00:17:54;100550.56;;;10.21;78.70
70521;BME280;58442;52.716;23.560;2023-10-31T00:19:56;100550.56;;;10.21;78.72
70521;BME280;58442;52.716;23.560;2023-10-31T00:21:57;100560.64;;;10.21;78.71
70521;BME280;58442;52.716;23.560;2023-10-31T00:23:59;100544.70;;;10.19;78.68
70521;BME280;58442;52.716;23.560;2023-10-31T00:26:09;100554.78;;;10.19;78.71
70521;BME280;58442;52.716;23.560;2023-10-31T00:28:11;100542.70;;;10.16;78.72
70521;BME280;58442;52.716;23.560;2023-10-31T00:30:12;100535.23;;;10.13;78.75
70521;BME280;58442;52.716;23.560;2023-10-31T00:32:14;100533.66;;;10.12;78.79
70521;BME280;58442;52.716;23.560;2023-10-31T00:34:24;100541.37;;;10.10;78.86
70521;BME280;58442;52.716;23.560;2023-10-31T00:36:26;100532.77;;;10.08;78.95
70521;BME280;58442;52.716;23.560;2023-10-31T00:38:27;100537.09;;;10.09;78.96
70521;BME280;58442;52.716;23.560;2023-10-31T00:40:29;100532.08;;;10.11;78.94
70521;BME280;58442;52.716;23.560;2023-10-31T00:42:39;100531.66;;;10.09;78.91
70521;BME280;58442;52.716;23.560;2023-10-31T00:44:42;100545.23;;;10.09;78.94
70521;BME280;58442;52.716;23.560;2023-10-31T00:46:44;100538.98;;;10.08;78.93
70521;BME280;58442;52.716;23.560;2023-10-31T00:48:45;100523.04;;;10.07;78.93
70521;BME280;58442;52.716;23.560;2023-10-31T00:50:54;100527.70;;;10.06;78.92
70521;BME280;58442;52.716;23.560;2023-10-31T00:52:55;100524.18;;;10.06;78.94
70521;BME280;58442;52.716;23.560;2023-10-31T00:54:57;100522.61;;;10.05;78.97
70521;BME280;58442;52.716;23.560;2023-10-31T00:56:58;100521.04;;;10.04;78.93
70521;BME280;58442;52.716;23.560;2023-10-31T00:59:09;100521.04;;;10.04;78.99
70521;BME280;58442;52.716;23.560;2023-10-31T01:01:10;100523.76;;;10.04;78.96
70521;BME280;58442;52.716;23.560;2023-10-31T01:03:12;100516.75;;;10.03;78.98
70521;BME280;58442;52.716;23.560;2023-10-31T01:05:13;100515.15;;;10.02;78.97
70521;BME280;58442;52.716;23.560;2023-10-31T01:07:24;100510.86;;;10.01;79.00
70521;BME280;58442;52.716;23.560;2023-10-31T01:09:25;100512.79;;;10.00;79.04
70521;BME280;58442;52.716;23.560;2023-10-31T01:11:27;100509.29;;;10.00;79.06
70521;BME280;58442;52.716;23.560;2023-10-31T01:13:28;100508.93;;;10.01;79.08
70521;BME280;58442;52.716;23.560;2023-10-31T01:15:39;100502.38;;;10.02;79.08
70521;BME280;58442;52.716;23.560;2023-10-31T01:17:40;100503.96;;;10.03;79.07
70521;BME280;58442;52.716;23.560;2023-10-31T01:19:41;100497.74;;;10.03;79.06
70521;BME280;58442;52.716;23.560;2023-10-31T01:21:43;100496.14;;;10.02;79.03
70521;BME280;58442;52.716;23.560;2023-10-31T01:23:53;100499.67;;;10.02;79.11
70521;BME280;58442;52.716;23.560;2023-10-31T01:25:55;100492.64;;;10.01;79.11
70521;BME280;58442;52.716;23.560;2023-10-31T01:27:56;100501.57;;;10.02;79.15
70521;BME280;58442;52.716;23.560;2023-10-31T01:29:58;100502.72;;;10.01;79.18
70521;BME280;58442;52.716;23.560;2023-10-31T01:32:08;100493.78;;;10.00;79.21
70521;BME280;58442;52.716;23.560;2023-10-31T01:34:10;100491.06;;;10.00;79.25
70521;BME280;58442;52.716;23.560;2023-10-31T01:36:11;100494.57;;;10.01;79.25
70521;BME280;58442;52.716;23.560;2023-10-31T01:38:15;100490.71;;;10.02;79.26
70521;BME280;58442;52.716;23.560;2023-10-31T01:40:23;100487.67;;;10.03;79.30
70521;BME280;58442;52.716;23.560;2023-10-31T01:42:24;100491.96;;;10.04;79.28
70521;BME280;58442;52.716;23.560;2023-10-31T01:44:26;100479.53;;;10.03;79.27
70521;BME280;58442;52.716;23.560;2023-10-31T01:46:27;100466.73;;;10.04;79.27
70521;BME280;58442;52.716;23.560;2023-10-31T01:48:38;100462.88;;;10.05;79.29
70521;BME280;58442;52.716;23.560;2023-10-31T01:50:39;100462.88;;;10.05;79.32
70521;BME280;58442;52.716;23.560;2023-10-31T01:52:41;100459.45;;;10.08;79.32
70521;BME280;58442;52.716;23.560;2023-10-31T01:54:44;100454.02;;;10.08;79.28
70521;BME280;58442;52.716;23.560;2023-10-31T01:56:55;100458.33;;;10.09;79.29
70521;BME280;58442;52.716;23.560;2023-10-31T01:58:59;100455.27;;;10.10;79.34
70521;BME280;58442;52.716;23.560;2023-10-31T02:01:00;100456.84;;;10.11;79.36
70521;BME280;58442;52.716;23.560;2023-10-31T02:03:02;100456.84;;;10.11;79.38
70521;BME280;58442;52.716;23.560;2023-10-31T02:05:08;100451.05;;;10.13;79.37
70521;BME280;58442;52.716;23.560;2023-10-31T02:07:10;100446.05;;;10.15;79.39
70521;BME280;58442;52.716;23.560;2023-10-31T02:09:12;100430.54;;;10.15;79.37
70521;BME280;58442;52.716;23.560;2023-10-31T02:11:13;100440.27;;;10.17;79.37
70521;BME280;58442;52.716;23.560;2023-10-31T02:13:23;100436.42;;;10.18;79.39
70521;BME280;58442;52.716;23.560;2023-10-31T02:15:24;100434.50;;;10.18;79.42
70521;BME280;58442;52.716;23.560;2023-10-31T02:17:26;100432.21;;;10.20;79.38
70521;BME280;58442;52.716;23.560;2023-10-31T02:19:27;100434.56;;;10.22;79.37
70521;BME280;58442;52.716;23.560;2023-10-31T02:21:41;100419.91;;;10.23;79.44
70521;BME280;58442;52.716;23.560;2023-10-31T02:23:42;100422.62;;;10.23;79.48
70521;BME280;58442;52.716;23.560;2023-10-31T02:25:44;100414.47;;;10.23;79.50
70521;BME280;58442;52.716;23.560;2023-10-31T02:27:45;100415.25;;;10.23;79.53
70521;BME280;58442;52.716;23.560;2023-10-31T02:29:52;100415.25;;;10.23;79.56
70521;BME280;58442;52.716;23.560;2023-10-31T02:31:54;100411.40;;;10.24;79.64
70521;BME280;58442;52.716;23.560;2023-10-31T02:33:56;100408.31;;;10.26;79.61
70521;BME280;58442;52.716;23.560;2023-10-31T02:35:57;100402.17;;;10.29;79.57
70521;BME280;58442;52.716;23.560;2023-10-31T02:38:07;100399.13;;;10.30;79.52
70521;BME280;58442;52.716;23.560;2023-10-31T02:40:09;100401.05;;;10.30;79.50
70521;BME280;58442;52.716;23.560;2023-10-31T02:42:11;100397.52;;;10.29;79.54
70521;BME280;58442;52.716;23.560;2023-10-31T02:44:14;100391.66;;;10.27;79.56
70521;BME280;58442;52.716;23.560;2023-10-31T02:46:22;100373.44;;;10.28;79.59
70521;BME280;58442;52.716;23.560;2023-10-31T02:48:24;100378.09;;;10.27;79.61
70521;BME280;58442;52.716;23.560;2023-10-31T02:50:26;100372.29;;;10.29;79.63
70521;BME280;58442;52.716;23.560;2023-10-31T02:52:27;100363.80;;;10.30;79.57
70521;BME280;58442;52.716;23.560;2023-10-31T02:54:37;100356.77;;;10.29;79.57
70521;BME280;58442;52.716;23.560;2023-10-31T02:56:38;100366.07;;;10.28;79.73
70521;BME280;58442;52.716;23.560;2023-10-31T02:58:40;100361.52;;;10.32;79.60
70521;BME280;58442;52.716;23.560;2023-10-31T03:00:42;100358.80;;;10.32;79.55
70521;BME280;58442;52.716;23.560;2023-10-31T03:02:52;100364.66;;;10.34;79.66
70521;BME280;58442;52.716;23.560;2023-10-31T03:04:53;100360.37;;;10.33;79.82
70521;BME280;58442;52.716;23.560;2023-10-31T03:06:55;100358.87;;;10.36;79.65
70521;BME280;58442;52.716;23.560;2023-10-31T03:08:56;100360.47;;;10.37;79.68
70521;BME280;58442;52.716;23.560;2023-10-31T03:11:07;100353.11;;;10.37;79.76
70521;BME280;58442;52.716;23.560;2023-10-31T03:13:08;100353.11;;;10.37;79.76
70521;BME280;58442;52.716;23.560;2023-10-31T03:15:10;100339.52;;;10.37;79.78
70521;BME280;58442;52.716;23.560;2023-10-31T03:17:11;100347.30;;;10.39;79.80
70521;BME280;58442;52.716;23.560;2023-10-31T03:19:21;100338.01;;;10.40;79.82
70521;BME280;58442;52.716;23.560;2023-10-31T03:21:23;100334.92;;;10.41;79.82
70521;BME280;58442;52.716;23.560;2023-10-31T03:23:26;100327.23;;;10.44;79.80
70521;BME280;58442;52.716;23.560;2023-10-31T03:25:27;100322.59;;;10.44;79.82
70521;BME280;58442;52.716;23.560;2023-10-31T03:27:36;100317.93;;;10.45;79.81
70521;BME280;58442;52.716;23.560;2023-10-31T03:29:38;100311.00;;;10.47;79.90
70521;BME280;58442;52.716;23.560;2023-10-31T03:31:39;100307.13;;;10.48;79.91
70521;BME280;58442;52.716;23.560;2023-10-31T03:33:41;100304.04;;;10.50;79.99
70521;BME280;58442;52.716;23.560;2023-10-31T03:35:51;100301.79;;;10.52;80.02
70521;BME280;58442;52.716;23.560;2023-10-31T03:37:52;100299.48;;;10.54;80.04
70521;BME280;58442;52.716;23.560;2023-10-31T03:39:54;100305.34;;;10.56;79.98
70521;BME280;58442;52.716;23.560;2023-10-31T03:41:55;100311.23;;;10.58;79.97
70521;BME280;58442;52.716;23.560;2023-10-31T03:44:06;100299.99;;;10.59;79.96
70521;BME280;58442;52.716;23.560;2023-10-31T03:46:08;100289.91;;;10.60;80.04
70521;BME280;58442;52.716;23.560;2023-10-31T03:48:09;100287.19;;;10.60;80.08
70521;BME280;58442;52.716;23.560;2023-10-31T03:50:11;100295.75;;;10.62;80.13
70521;BME280;58442;52.716;23.560;2023-10-31T03:52:21;100303.55;;;10.63;80.19
70521;BME280;58442;52.716;23.560;2023-10-31T03:54:22;100296.63;;;10.66;80.21
70521;BME280;58442;52.716;23.560;2023-10-31T03:56:23;100292.84;;;10.71;80.21
70521;BME280;58442;52.716;23.560;2023-10-31T03:58:25;100287.46;;;10.74;80.14
70521;BME280;58442;52.716;23.560;2023-10-31T04:00:36;100294.88;;;10.77;80.13
70521;BME280;58442;52.716;23.560;2023-10-31T04:02:39;100282.11;;;10.78;80.14
70521;BME280;58442;52.716;23.560;2023-10-31T04:04:41;100280.59;;;10.80;80.22
70521;BME280;58442;52.716;23.560;2023-10-31T04:06:42;100274.42;;;10.83;80.20
70521;BME280;58442;52.716;23.560;2023-10-31T04:08:51;100255.84;;;10.85;80.19
70521;BME280;58442;52.716;23.560;2023-10-31T04:10:52;100250.45;;;10.89;80.20
70521;BME280;58442;52.716;23.560;2023-10-31T04:12:53;100241.92;;;10.90;80.20
70521;BME280;58442;52.716;23.560;2023-10-31T04:14:55;100249.74;;;10.92;80.18
70521;BME280;58442;52.716;23.560;2023-10-31T04:17:05;100241.64;;;10.95;80.19
70521;BME280;58442;52.716;23.560;2023-10-31T04:19:07;100235.83;;;10.97;80.17
70521;BME280;58442;52.716;23.560;2023-10-31T04:21:08;100234.34;;;11.00;80.15
70521;BME280;58442;52.716;23.560;2023-10-31T04:23:10;100229.31;;;11.02;80.16
70521;BME280;58442;52.716;23.560;2023-10-31T04:25:20;100220.79;;;11.03;80.16
70521;BME280;58442;52.716;23.560;2023-10-31T04:27:22;100213.41;;;11.04;80.18
70521;BME280;58442;52.716;23.560;2023-10-31T04:29:24;100215.42;;;11.07;80.16
70521;BME280;58442;52.716;23.560;2023-10-31T04:31:25;100199.90;;;11.07;80.12
70521;BME280;58442;52.716;23.560;2023-10-31T04:33:35;100202.61;;;11.07;80.11
70521;BME280;58442;52.716;23.560;2023-10-31T04:35:36;100203.39;;;11.08;80.19
70521;BME280;58442;52.716;23.560;2023-10-31T04:37:38;100198.73;;;11.08;80.24
70521;BME280;58442;52.716;23.560;2023-10-31T04:39:39;100191.37;;;11.09;80.29
70521;BME280;58442;52.716;23.560;2023-10-31T04:41:50;100189.84;;;11.11;80.35
70521;BME280;58442;52.716;23.560;2023-10-31T04:43:51;100184.06;;;11.13;80.39
70521;BME280;58442;52.716;23.560;2023-10-31T04:45:53;100179.45;;;11.17;80.38
70521;BME280;58442;52.716;23.560;2023-10-31T04:47:54;100181.80;;;11.18;80.34
70521;BME280;58442;52.716;23.560;2023-10-31T04:50:05;100167.85;;;11.20;80.35
70521;BME280;58442;52.716;23.560;2023-10-31T04:52:06;100167.89;;;11.23;80.35
70521;BME280;58442;52.716;23.560;2023-10-31T04:54:08;100159.36;;;11.25;80.36
70521;BME280;58442;52.716;23.560;2023-10-31T04:56:13;100162.52;;;11.27;80.34
70521;BME280;58442;52.716;23.560;2023-10-31T04:58:20;100173.80;;;11.29;80.35
70521;BME280;58442;52.716;23.560;2023-10-31T05:00:21;100174.66;;;11.33;80.38
70521;BME280;58442;52.716;23.560;2023-10-31T05:02:22;100181.66;;;11.34;80.35
70521;BME280;58442;52.716;23.560;2023-10-31T05:04:24;100169.63;;;11.35;80.35
70521;BME280;58442;52.716;23.560;2023-10-31T05:06:34;100168.10;;;11.38;80.37
70521;BME280;58442;52.716;23.560;2023-10-31T05:08:36;100163.88;;;11.40;80.35
70521;BME280;58442;52.716;23.560;2023-10-31T05:10:37;100167.39;;;11.41;80.32
70521;BME280;58442;52.716;23.560;2023-10-31T05:12:39;100166.64;;;11.44;80.35
70521;BME280;58442;52.716;23.560;2023-10-31T05:14:49;100176.80;;;11.47;80.36
70521;BME280;58442;52.716;23.560;2023-10-31T05:16:51;100180.72;;;11.49;80.35
70521;BME280;58442;52.716;23.560;2023-10-31T05:18:52;100162.08;;;11.51;80.34
70521;BME280;58442;52.716;23.560;2023-10-31T05:20:54;100162.93;;;11.56;80.31
70521;BME280;58442;52.716;23.560;2023-10-31T05:23:04;100150.09;;;11.56;80.27
70521;BME280;58442;52.716;23.560;2023-10-31T05:25:06;100147.00;;;11.58;80.26
70521;BME280;58442;52.716;23.560;2023-10-31T05:27:08;100162.55;;;11.57;80.25
70521;BME280;58442;52.716;23.560;2023-10-31T05:29:13;100148.16;;;11.57;80.29
70521;BME280;58442;52.716;23.560;2023-10-31T05:31:19;100149.35;;;11.59;80.33
70521;BME280;58442;52.716;23.560;2023-10-31T05:33:20;100147.85;;;11.62;80.32
70521;BME280;58442;52.716;23.560;2023-10-31T05:35:24;100146.70;;;11.63;80.29
70521;BME280;58442;52.716;23.560;2023-10-31T05:37:26;100145.13;;;11.62;80.27
70521;BME280;58442;52.716;23.560;2023-10-31T05:39:34;100139.69;;;11.62;80.31
70521;BME280;58442;52.716;23.560;2023-10-31T05:41:37;100140.47;;;11.62;80.31
70521;BME280;58442;52.716;23.560;2023-10-31T05:43:39;100131.93;;;11.64;80.30
70521;BME280;58442;52.716;23.560;2023-10-31T05:45:40;100131.93;;;11.64;80.29
70521;BME280;58442;52.716;23.560;2023-10-31T05:47:48;100129.98;;;11.64;80.35
70521;BME280;58442;52.716;23.560;2023-10-31T05:49:50;100133.12;;;11.66;80.36
70521;BME280;58442;52.716;23.560;2023-10-31T05:51:51;100128.88;;;11.69;80.35
70521;BME280;58442;52.716;23.560;2023-10-31T05:53:53;100132.02;;;11.71;80.34
70521;BME280;58442;52.716;23.560;2023-10-31T05:56:04;100106.35;;;11.72;80.32
70521;BME280;58442;52.716;23.560;2023-10-31T05:58:05;100110.64;;;11.73;80.31
70521;BME280;58442;52.716;23.560;2023-10-31T06:00:07;100102.48;;;11.73;80.33
70521;BME280;58442;52.716;23.560;2023-10-31T06:02:09;100091.25;;;11.74;80.33
70521;BME280;58442;52.716;23.560;2023-10-31T06:04:18;100079.20;;;11.75;80.36
70521;BME280;58442;52.716;23.560;2023-10-31T06:06:20;100071.80;;;11.76;80.37
70521;BME280;58442;52.716;23.560;2023-10-31T06:08:21;100069.09;;;11.76;80.41
70521;BME280;58442;52.716;23.560;2023-10-31T06:10:28;100075.71;;;11.78;80.43
70521;BME280;58442;52.716;23.560;2023-10-31T06:12:33;100076.19;;;11.81;80.41
70521;BME280;58442;52.716;23.560;2023-10-31T06:14:34;100073.07;;;11.82;80.43
70521;BME280;58442;52.716;23.560;2023-10-31T06:16:43;100061.03;;;11.83;80.44
70521;BME280;58442;52.716;23.560;2023-10-31T06:18:44;100062.59;;;11.84;80.50
70521;BME280;58442;52.716;23.560;2023-10-31T06:20:48;100053.70;;;11.87;80.54
70521;BME280;58442;52.716;23.560;2023-10-31T06:22:49;100040.89;;;11.91;80.55
70521;BME280;58442;52.716;23.560;2023-10-31T06:24:51;100029.62;;;11.93;80.48
70521;BME280;58442;52.716;23.560;2023-10-31T06:26:52;100021.09;;;11.94;80.47
70521;BME280;58442;52.716;23.560;2023-10-31T06:29:03;100022.28;;;11.97;80.46
70521;BME280;58442;52.716;23.560;2023-10-31T06:31:04;100053.01;;;11.97;80.48
70521;BME280;58442;52.716;23.560;2023-10-31T06:33:06;100058.51;;;12.01;80.50
70521;BME280;58442;52.716;23.560;2023-10-31T06:35:09;100059.30;;;12.05;80.46
70521;BME280;58442;52.716;23.560;2023-10-31T06:37:17;100066.37;;;12.10;80.43
70521;BME280;58442;52.716;23.560;2023-10-31T06:39:19;100054.72;;;12.13;80.39
70521;BME280;58442;52.716;23.560;2023-10-31T06:41:20;100046.54;;;12.13;80.39
70521;BME280;58442;52.716;23.560;2023-10-31T06:43:22;100046.97;;;12.15;80.40
70521;BME280;58442;52.716;23.560;2023-10-31T06:45:32;100043.48;;;12.18;80.42
70521;BME280;58442;52.716;23.560;2023-10-31T06:47:34;100045.45;;;12.21;80.41
70521;BME280;58442;52.716;23.560;2023-10-31T06:49:35;100038.49;;;12.23;80.37
70521;BME280;58442;52.716;23.560;2023-10-31T06:51:37;100038.10;;;12.25;80.36
70521;BME280;58442;52.716;23.560;2023-10-31T06:53:47;100040.05;;;12.28;80.35
70521;BME280;58442;52.716;23.560;2023-10-31T06:55:48;100031.53;;;12.29;80.33
70521;BME280;58442;52.716;23.560;2023-10-31T06:57:50;100035.06;;;12.33;80.31
70521;BME280;58442;52.716;23.560;2023-10-31T06:59:51;100030.04;;;12.36;80.26
70521;BME280;58442;52.716;23.560;2023-10-31T07:02:02;100030.05;;;12.39;80.27
70521;BME280;58442;52.716;23.560;2023-10-31T07:04:04;100026.59;;;12.42;80.25
70521;BME280;58442;52.716;23.560;2023-10-31T07:06:06;100024.26;;;12.44;80.27
70521;BME280;58442;52.716;23.560;2023-10-31T07:08:08;100006.37;;;12.47;80.26
70521;BME280;58442;52.716;23.560;2023-10-31T07:10:17;100013.38;;;12.48;80.26
70521;BME280;58442;52.716;23.560;2023-10-31T07:12:18;100010.30;;;12.49;80.31
70521;BME280;58442;52.716;23.560;2023-10-31T07:14:19;99993.17;;;12.52;80.32
70521;BME280;58442;52.716;23.560;2023-10-31T07:16:21;99985.82;;;12.56;80.33
70521;BME280;58442;52.716;23.560;2023-10-31T07:18:31;99991.28;;;12.60;80.30
70521;BME280;58442;52.716;23.560;2023-10-31T07:20:33;99995.60;;;12.65;80.31
70521;BME280;58442;52.716;23.560;2023-10-31T07:22:35;99980.03;;;12.69;80.28
70521;BME280;58442;52.716;23.560;2023-10-31T07:24:37;99969.55;;;12.71;80.24
70521;BME280;58442;52.716;23.560;2023-10-31T07:26:46;99964.49;;;12.73;80.23
70521;BME280;58442;52.716;23.560;2023-10-31T07:28:48;99966.44;;;12.76;80.19
70521;BME280;58442;52.716;23.560;2023-10-31T07:30:49;99968.04;;;12.77;80.17
70521;BME280;58442;52.716;23.560;2023-10-31T07:32:51;99978.16;;;12.80;80.14
70521;BME280;58442;52.716;23.560;2023-10-31T07:35:01;99977.38;;;12.83;80.10
70521;BME280;58442;52.716;23.560;2023-10-31T07:37:03;99982.10;;;12.86;80.07
70521;BME280;58442;52.716;23.560;2023-10-31T07:39:05;99985.22;;;12.88;80.10
70521;BME280;58442;52.716;23.560;2023-10-31T07:41:06;99990.71;;;12.92;80.09
70521;BME280;58442;52.716;23.560;2023-10-31T07:43:16;100002.02;;;12.94;80.10
70521;BME280;58442;52.716;23.560;2023-10-31T07:45:17;100000.88;;;12.98;80.06
70521;BME280;58442;52.716;23.560;2023-10-31T07:47:19;99982.56;;;13.02;79.95
70521;BME280;58442;52.716;23.560;2023-10-31T07:49:20;100002.86;;;13.05;79.88
70521;BME280;58442;52.716;23.560;2023-10-31T07:51:31;99979.48;;;13.07;79.84
70521;BME280;58442;52.716;23.560;2023-10-31T07:53:32;99978.30;;;13.08;79.79
70521;BME280;58442;52.716;23.560;2023-10-31T07:55:34;99975.20;;;13.10;79.84
70521;BME280;58442;52.716;23.560;2023-10-31T07:57:35;99976.36;;;13.09;79.83
70521;BME280;58442;52.716;23.560;2023-10-31T07:59:45;99966.23;;;13.09;79.86
70521;BME280;58442;52.716;23.560;2023-10-31T08:01:47;99963.50;;;13.09;79.85
70521;BME280;58442;52.716;23.560;2023-10-31T08:03:51;99971.69;;;13.09;79.89
70521;BME280;58442;52.716;23.560;2023-10-31T08:05:52;99964.66;;;13.08;79.88
70521;BME280;58442;52.716;23.560;2023-10-31T08:08:01;99972.08;;;13.08;79.91
70521;BME280;58442;52.716;23.560;2023-10-31T08:10:04;99959.22;;;13.08;79.91
70521;BME280;58442;52.716;23.560;2023-10-31T08:12:06;99956.49;;;13.08;79.92
70521;BME280;58442;52.716;23.560;2023-10-31T08:14:07;99979.09;;;13.09;79.95
70521;BME280;58442;52.716;23.560;2023-10-31T08:16:19;99967.04;;;13.13;79.95
70521;BME280;58442;52.716;23.560;2023-10-31T08:18:22;99959.27;;;13.19;79.87
70521;BME280;58442;52.716;23.560;2023-10-31T08:20:25;99958.13;;;13.24;79.75
70521;BME280;58442;52.716;23.560;2023-10-31T08:22:27;99958.16;;;13.27;79.68
70521;BME280;58442;52.716;23.560;2023-10-31T08:24:30;99956.23;;;13.31;79.65
70521;BME280;58442;52.716;23.560;2023-10-31T08:26:32;99964.42;;;13.35;79.56
70521;BME280;58442;52.716;23.560;2023-10-31T08:28:34;99967.56;;;13.40;79.52
70521;BME280;58442;52.716;23.560;2023-10-31T08:30:36;99966.42;;;13.49;79.48
70521;BME280;58442;52.716;23.560;2023-10-31T08:32:45;99953.95;;;13.58;79.32
70521;BME280;58442;52.716;23.560;2023-10-31T08:34:46;99936.44;;;13.66;79.42
70521;BME280;58442;52.716;23.560;2023-10-31T08:36:47;99957.49;;;13.69;79.19
70521;BME280;58442;52.716;23.560;2023-10-31T08:38:49;99956.73;;;13.76;79.15
70521;BME280;58442;52.716;23.560;2023-10-31T08:40:59;99939.19;;;13.84;79.05
70521;BME280;58442;52.716;23.560;2023-10-31T08:43:01;99942.70;;;13.92;78.89
70521;BME280;58442;52.716;23.560;2023-10-31T08:45:08;99933.34;;;13.96;78.73
70521;BME280;58442;52.716;23.560;2023-10-31T08:47:09;99926.33;;;14.03;78.64
70521;BME280;58442;52.716;23.560;2023-10-31T08:49:15;99926.30;;;14.06;78.51
70521;BME280;58442;52.716;23.560;2023-10-31T08:51:17;99915.39;;;14.10;78.45
70521;BME280;58442;52.716;23.560;2023-10-31T08:53:18;99922.42;;;14.14;78.34
70521;BME280;58442;52.716;23.560;2023-10-31T08:55:20;99910.70;;;14.17;78.20
70521;BME280;58442;52.716;23.560;2023-10-31T08:57:29;99920.83;;;14.20;78.05
70521;BME280;58442;52.716;23.560;2023-10-31T08:59:31;99924.35;;;14.24;77.95
70521;BME280;58442;52.716;23.560;2023-10-31T09:01:32;99927.48;;;14.30;77.76
70521;BME280;58442;52.716;23.560;2023-10-31T09:03:34;99907.18;;;14.35;77.63
70521;BME280;58442;52.716;23.560;2023-10-31T09:05:49;99914.58;;;14.38;77.57
70521;BME280;58442;52.716;23.560;2023-10-31T09:07:56;99909.91;;;14.42;77.47
70521;BME280;58442;52.716;23.560;2023-10-31T09:09:58;99906.00;;;14.46;77.31
70521;BME280;58442;52.716;23.560;2023-10-31T09:11:59;99909.92;;;14.49;77.19
70521;BME280;58442;52.716;23.560;2023-10-31T09:14:02;99912.22;;;14.54;77.09
70521;BME280;58442;52.716;23.560;2023-10-31T09:16:04;99916.52;;;14.59;76.94
70521;BME280;58442;52.716;23.560;2023-10-31T09:18:09;99913.77;;;14.66;76.79
70521;BME280;58442;52.716;23.560;2023-10-31T09:20:11;99907.09;;;14.74;76.61
70521;BME280;58442;52.716;23.560;2023-10-31T09:22:17;99904.34;;;14.81;76.42
70521;BME280;58442;52.716;23.560;2023-10-31T09:24:19;99903.16;;;14.89;76.25
70521;BME280;58442;52.716;23.560;2023-10-31T09:26:20;99896.08;;;14.95;76.10
70521;BME280;58442;52.716;23.560;2023-10-31T09:28:21;99903.48;;;15.02;75.95
70521;BME280;58442;52.716;23.560;2023-10-31T09:30:31;99903.45;;;15.09;75.84
70521;BME280;58442;52.716;23.560;2023-10-31T09:32:33;99882.70;;;15.15;75.71
70521;BME280;58442;52.716;23.560;2023-10-31T09:34:34;99892.05;;;15.21;75.57
70521;BME280;58442;52.716;23.560;2023-10-31T09:36:36;99888.91;;;15.26;75.50
70521;BME280;58442;52.716;23.560;2023-10-31T09:38:46;99875.18;;;15.33;75.35
70521;BME280;58442;52.716;23.560;2023-10-31T09:40:48;99868.09;;;15.40;75.14
70521;BME280;58442;52.716;23.560;2023-10-31T09:42:51;99863.37;;;15.44;75.04
70521;BME280;58442;52.716;23.560;2023-10-31T09:44:52;99868.79;;;15.51;74.82
70521;BME280;58442;52.716;23.560;2023-10-31T09:47:01;99858.60;;;15.55;74.64
70521;BME280;58442;52.716;23.560;2023-10-31T09:49:03;99847.63;;;15.58;74.50
70521;BME280;58442;52.716;23.560;2023-10-31T09:51:06;99846.04;;;15.61;74.29
70521;BME280;58442;52.716;23.560;2023-10-31T09:53:08;99824.52;;;15.63;74.16
70521;BME280;58442;52.716;23.560;2023-10-31T09:55:16;99825.71;;;15.62;74.16
70521;BME280;58442;52.716;23.560;2023-10-31T09:57:17;99836.66;;;15.62;74.00
70521;BME280;58442;52.716;23.560;2023-10-31T09:59:19;99846.44;;;15.63;73.86
70521;BME280;58442;52.716;23.560;2023-10-31T10:01:21;99828.81;;;15.64;73.81
70521;BME280;58442;52.716;23.560;2023-10-31T10:03:30;99817.84;;;15.68;73.64
70521;BME280;58442;52.716;23.560;2023-10-31T10:05:33;99822.13;;;15.69;73.58
70521;BME280;58442;52.716;23.560;2023-10-31T10:07:36;99816.23;;;15.70;73.46
70521;BME280;58442;52.716;23.560;2023-10-31T10:09:43;99803.71;;;15.73;73.32
70521;BME280;58442;52.716;23.560;2023-10-31T10:11:45;99801.34;;;15.75;73.28
70521;BME280;58442;52.716;23.560;2023-10-31T10:13:47;99804.44;;;15.77;73.21
70521;BME280;58442;52.716;23.560;2023-10-31T10:15:49;99815.39;;;15.80;73.04
70521;BME280;58442;52.716;23.560;2023-10-31T10:17:55;99814.56;;;15.83;72.93
70521;BME280;58442;52.716;23.560;2023-10-31T10:20:06;99816.50;;;15.86;72.81
70521;BME280;58442;52.716;23.560;2023-10-31T10:22:28;99823.91;;;15.90;72.61
70521;BME280;58442;52.716;23.560;2023-10-31T10:24:29;99827.40;;;15.94;72.46
70521;BME280;58442;52.716;23.560;2023-10-31T10:26:31;99827.77;;;15.96;72.35
70521;BME280;58442;52.716;23.560;2023-10-31T10:28:32;99830.51;;;15.96;72.30
70521;BME280;58442;52.716;23.560;2023-10-31T10:30:36;99830.51;;;15.96;72.26
70521;BME280;58442;52.716;23.560;2023-10-31T10:32:38;99822.28;;;15.96;72.18
70521;BME280;58442;52.716;23.560;2023-10-31T10:34:42;99821.51;;;15.95;72.11
70521;BME280;58442;52.716;23.560;2023-10-31T10:36:49;99820.32;;;15.96;72.06
70521;BME280;58442;52.716;23.560;2023-10-31T10:38:56;99822.28;;;15.96;72.00
70521;BME280;58442;52.716;23.560;2023-10-31T10:41:01;99816.05;;;15.92;71.99